EDLW/DTM METAR and TAF weather

Enter ICAO airport designator
Station Type Date Time Source
EDLW METAR 2018/04/21 20:50 UTC NOAA

EDLW 212050Z AUTO 08007KT 9999 // NCD 15/07 Q1018


Station Type Date Time Source
EDLW Decoded METAR 2018/04/21 20:50 UTC NOAA

Dortmund / Wickede, Germany (EDLW) 51-31N 007-37E
Apr 21, 2018 - 04:50 PM EDT / 2018.04.21 2050 UTC
Wind: from the E (080 degrees) at 8 MPH (7 KT):0
Visibility: greater than 7 mile(s):0
Temperature: 59 F (15 C)
Dew Point: 44 F (7 C)
Relative Humidity: 58%
Pressure (altimeter): 30.06 in. Hg (1018 hPa)
ob: EDLW 212050Z AUTO 08007KT 9999 // NCD 15/07 Q1018
cycle: 21

Station Type Date Time Source
EDLW TAF 2018/04/21 20:57 UTC NOAA

TAF TAF EDLW 212050Z 2120/2218 CNL


Example: see airport list